createdAt,value
2022-10-24T00:01:46.822Z,12.59
2022-10-24T00:04:16.457Z,12.62
2022-10-24T00:06:44.612Z,12.88
2022-10-24T00:09:12.933Z,13.07
2022-10-24T00:11:43.616Z,13.26
2022-10-24T00:14:12.537Z,13.34
2022-10-24T00:16:40.642Z,13.38
2022-10-24T00:19:08.816Z,13.34
2022-10-24T00:21:38.334Z,13.32
2022-10-24T00:24:07.489Z,13.26
2022-10-24T00:26:36.384Z,13.01
2022-10-24T00:29:05.029Z,12.94
2022-10-24T00:31:33.661Z,13.11
2022-10-24T00:34:02.245Z,13.54
2022-10-24T00:36:30.847Z,13.49
2022-10-24T00:39:00.616Z,13.61
2022-10-24T00:41:31.904Z,13.74
2022-10-24T00:44:19.840Z,13.75
2022-10-24T00:46:53.657Z,13.76
2022-10-24T00:49:25.759Z,13.74
2022-10-24T00:51:57.847Z,13.73
2022-10-24T00:54:27.729Z,13.87
2022-10-24T00:57:04.366Z,14.04
2022-10-24T00:59:34.354Z,14.13
2022-10-24T01:02:02.515Z,14.19
2022-10-24T01:04:30.714Z,14.18
2022-10-24T01:07:08.881Z,14.23
2022-10-24T01:09:58.289Z,14.18
2022-10-24T01:12:36.055Z,14.29
2022-10-24T01:15:14.072Z,14.19
2022-10-24T01:17:52.363Z,14.15
2022-10-24T01:20:52.879Z,14.22
2022-10-24T01:24:11.432Z,14.22
2022-10-24T01:27:07.313Z,14.16
2022-10-24T01:30:02.029Z,14.00
2022-10-24T01:32:39.063Z,13.90
2022-10-24T01:35:16.679Z,13.92
2022-10-24T01:37:48.803Z,13.85
2022-10-24T01:40:22.965Z,13.83
2022-10-24T01:42:53.444Z,13.85
2022-10-24T01:45:30.489Z,13.82
2022-10-24T01:48:03.121Z,13.71
2022-10-24T01:50:32.836Z,13.80
2022-10-24T01:53:02.530Z,13.75
2022-10-24T01:55:32.654Z,13.70
2022-10-24T01:58:00.978Z,13.60
2022-10-24T02:00:30.761Z,13.46
2022-10-24T02:03:02.160Z,13.35
2022-10-24T02:05:34.992Z,13.24
2022-10-24T02:08:07.458Z,13.16
2022-10-24T02:10:38.831Z,13.02
2022-10-24T02:13:12.365Z,12.83
2022-10-24T02:15:45.899Z,12.68
2022-10-24T02:18:17.075Z,12.72
2022-10-24T02:20:53.978Z,12.56
2022-10-24T02:23:28.380Z,12.57
2022-10-24T02:26:01.916Z,12.57
2022-10-24T02:28:34.813Z,12.26
2022-10-24T02:31:09.591Z,12.16
2022-10-24T02:33:42.291Z,11.97
2022-10-24T02:36:13.489Z,11.93
2022-10-24T02:38:44.295Z,11.91
2022-10-24T02:41:16.240Z,11.93
2022-10-24T02:43:47.444Z,11.95
2022-10-24T02:46:17.991Z,11.84
2022-10-24T02:48:51.534Z,11.76
2022-10-24T02:51:21.900Z,11.65
2022-10-24T02:53:51.435Z,11.57
2022-10-24T02:56:19.902Z,11.57
2022-10-24T02:58:48.087Z,11.50
2022-10-24T03:01:17.657Z,11.54
2022-10-24T03:03:46.253Z,11.56
2022-10-24T03:06:14.368Z,11.63
2022-10-24T03:08:42.616Z,11.61
2022-10-24T03:11:10.847Z,11.74
2022-10-24T03:13:38.988Z,11.79
2022-10-24T03:16:10.248Z,11.76
2022-10-24T03:18:42.643Z,11.77
2022-10-24T03:21:10.874Z,11.81
2022-10-24T03:23:38.943Z,11.83
2022-10-24T03:26:07.569Z,11.79
2022-10-24T03:28:35.785Z,11.75
2022-10-24T03:31:04.101Z,11.63
2022-10-24T03:33:32.135Z,11.64
2022-10-24T03:36:02.026Z,11.70
2022-10-24T03:38:30.150Z,11.73
2022-10-24T03:40:58.376Z,11.63
2022-10-24T03:43:26.675Z,11.67
2022-10-24T03:45:54.808Z,11.63
2022-10-24T03:48:23.117Z,11.72
2022-10-24T03:50:51.174Z,11.88
2022-10-24T03:53:20.895Z,11.95
2022-10-24T03:55:49.059Z,11.97
2022-10-24T03:58:17.238Z,12.17
2022-10-24T04:00:45.398Z,12.30
2022-10-24T04:03:13.492Z,12.37
2022-10-24T04:05:41.781Z,12.35
2022-10-24T04:08:10.102Z,12.31
2022-10-24T04:10:39.625Z,12.19
2022-10-24T04:13:07.702Z,12.19
2022-10-24T04:15:35.975Z,12.17
2022-10-24T04:18:04.735Z,12.09
2022-10-24T04:20:32.852Z,12.02
2022-10-24T04:23:03.695Z,11.95
2022-10-24T04:25:32.795Z,11.93
2022-10-24T04:28:02.308Z,11.99
2022-10-24T04:30:30.701Z,12.05
2022-10-24T04:32:58.944Z,12.58
2022-10-24T04:35:27.484Z,12.54
2022-10-24T04:37:55.782Z,12.46
2022-10-24T04:40:24.012Z,12.51
2022-10-24T04:42:52.108Z,12.58
2022-10-24T04:45:21.573Z,12.58
2022-10-24T04:47:49.672Z,12.54
2022-10-24T04:50:18.006Z,12.49
2022-10-24T04:52:46.080Z,12.50
2022-10-24T04:55:14.184Z,12.52
2022-10-24T04:57:42.574Z,12.46
2022-10-24T05:00:11.765Z,12.49
2022-10-24T05:02:41.292Z,12.49
2022-10-24T05:05:09.932Z,12.58
2022-10-24T05:07:38.180Z,12.55
2022-10-24T05:10:07.310Z,12.50
2022-10-24T05:12:35.551Z,12.61
2022-10-24T05:15:03.789Z,12.67
2022-10-24T05:17:31.864Z,12.92
2022-10-24T05:20:01.588Z,13.22
2022-10-24T05:22:29.786Z,13.44
2022-10-24T05:24:58.025Z,13.48
2022-10-24T05:27:26.103Z,13.43
2022-10-24T05:29:54.985Z,13.49
2022-10-24T05:32:24.353Z,13.53
2022-10-24T05:34:52.711Z,13.55
2022-10-24T05:37:22.260Z,13.68
2022-10-24T05:39:50.389Z,13.83
2022-10-24T05:42:18.838Z,13.94
2022-10-24T05:44:46.969Z,14.23
2022-10-24T05:47:15.084Z,14.31
2022-10-24T05:49:43.446Z,14.35
2022-10-24T05:52:11.594Z,14.44
2022-10-24T05:54:55.136Z,14.55
2022-10-24T05:57:23.682Z,14.65
2022-10-24T05:59:51.796Z,14.73
2022-10-24T06:02:21.505Z,14.78
2022-10-24T06:04:50.783Z,14.84
2022-10-24T06:07:19.277Z,14.88
2022-10-24T06:09:48.963Z,15.00
2022-10-24T06:12:17.253Z,15.05
2022-10-24T06:14:45.891Z,15.08
2022-10-24T06:17:14.067Z,15.16
2022-10-24T06:19:42.230Z,15.20
2022-10-24T06:22:11.076Z,15.26
2022-10-24T06:24:39.960Z,15.34
2022-10-24T06:27:09.397Z,15.40
2022-10-24T06:29:37.946Z,15.45
2022-10-24T06:32:06.223Z,15.45
2022-10-24T06:34:34.653Z,15.41
2022-10-24T06:37:03.385Z,15.49
2022-10-24T06:39:31.617Z,15.51
2022-10-24T06:41:59.796Z,15.56
2022-10-24T06:44:29.554Z,15.66
2022-10-24T06:46:57.795Z,15.66
2022-10-24T06:49:26.124Z,15.67
2022-10-24T06:51:54.238Z,15.71
2022-10-24T06:54:24.208Z,15.74
2022-10-24T06:56:54.588Z,15.81
2022-10-24T06:59:23.448Z,15.84
2022-10-24T07:01:53.062Z,15.92
2022-10-24T07:04:21.319Z,15.96
2022-10-24T07:06:49.625Z,16.06
2022-10-24T07:09:18.341Z,16.07
2022-10-24T07:11:47.153Z,16.12
2022-10-24T07:14:16.265Z,16.19
2022-10-24T07:16:45.365Z,16.29
2022-10-24T07:19:14.893Z,16.36
2022-10-24T07:21:43.041Z,16.46
2022-10-24T07:24:13.423Z,16.46
2022-10-24T07:26:41.981Z,16.60
2022-10-24T07:29:10.828Z,16.66
2022-10-24T07:31:39.197Z,16.85
2022-10-24T07:34:08.931Z,16.99
2022-10-24T07:36:41.578Z,17.04
2022-10-24T07:39:12.322Z,17.20
2022-10-24T07:41:41.955Z,17.27
2022-10-24T07:44:10.933Z,17.28
2022-10-24T07:46:39.418Z,17.32
2022-10-24T07:49:07.566Z,17.30
2022-10-24T07:51:35.684Z,17.39
2022-10-24T07:54:05.476Z,17.47
2022-10-24T07:56:33.645Z,17.54
2022-10-24T07:59:09.058Z,17.50
2022-10-24T08:01:41.918Z,17.54
2022-10-24T08:04:10.949Z,17.62
2022-10-24T08:06:40.838Z,17.70
2022-10-24T08:09:10.574Z,17.58
2022-10-24T08:11:38.617Z,17.38
2022-10-24T08:14:06.918Z,17.60
2022-10-24T08:16:35.135Z,17.82
2022-10-24T08:19:03.224Z,17.94
2022-10-24T08:21:31.809Z,18.05
2022-10-24T08:23:59.956Z,18.12
2022-10-24T08:26:29.603Z,18.12
2022-10-24T08:28:58.055Z,18.18
2022-10-24T08:31:27.553Z,18.07
2022-10-24T08:33:56.757Z,18.05
2022-10-24T08:36:26.578Z,18.14
2022-10-24T08:38:54.955Z,18.23
2022-10-24T08:41:32.191Z,18.35
2022-10-24T08:44:03.587Z,18.46
2022-10-24T08:46:40.328Z,18.48
2022-10-24T08:49:19.080Z,18.57
2022-10-24T08:51:50.094Z,18.45
2022-10-24T08:54:22.861Z,18.49
2022-10-24T08:56:53.542Z,18.59
2022-10-24T08:59:22.478Z,18.67
2022-10-24T09:02:00.538Z,18.75
2022-10-24T09:04:37.828Z,18.82
2022-10-24T09:07:07.367Z,18.95
2022-10-24T09:09:40.770Z,18.94
2022-10-24T09:12:14.575Z,19.10
2022-10-24T09:14:44.735Z,19.15
2022-10-24T09:19:53.375Z,19.08
2022-10-24T09:22:22.831Z,19.05
2022-10-24T09:24:55.085Z,18.88
2022-10-24T09:27:27.218Z,18.87
2022-10-24T09:29:55.352Z,18.86
2022-10-24T09:32:26.909Z,18.82
2022-10-24T09:34:56.364Z,18.73
2022-10-24T09:37:42.494Z,18.80
2022-10-24T09:40:20.221Z,18.75
2022-10-24T09:42:59.930Z,18.59
2022-10-24T09:45:41.959Z,18.62
2022-10-24T09:48:24.581Z,18.59
2022-10-24T09:50:57.267Z,18.63
2022-10-24T09:53:28.672Z,18.54
2022-10-24T09:56:00.564Z,18.47
2022-10-24T09:58:33.902Z,18.44
2022-10-24T10:01:05.473Z,18.42
2022-10-24T10:03:35.082Z,18.41
2022-10-24T10:06:06.252Z,18.46
2022-10-24T10:08:36.588Z,18.42
2022-10-24T10:11:07.944Z,18.30
2022-10-24T10:13:49.668Z,18.22
2022-10-24T10:16:25.123Z,18.20
2022-10-24T10:19:02.850Z,18.04
2022-10-24T10:21:55.302Z,18.09
2022-10-24T10:24:29.023Z,17.92
2022-10-24T10:26:57.169Z,17.90
2022-10-24T10:29:27.776Z,18.06
2022-10-24T10:32:07.086Z,18.04
2022-10-24T10:34:40.299Z,18.04
2022-10-24T10:37:28.060Z,18.03
2022-10-24T10:40:27.279Z,18.06
2022-10-24T10:43:12.073Z,18.04
2022-10-24T10:45:46.353Z,18.10
2022-10-24T10:48:42.585Z,17.97
2022-10-24T10:51:21.623Z,17.96
2022-10-24T10:53:58.354Z,17.98
2022-10-24T10:56:34.012Z,18.12
2022-10-24T10:59:17.955Z,18.04
2022-10-24T11:01:57.211Z,18.04
2022-10-24T11:04:34.856Z,17.97
2022-10-24T11:07:11.455Z,17.99
2022-10-24T11:09:44.804Z,18.02
2022-10-24T11:12:18.701Z,18.04
2022-10-24T11:14:51.065Z,18.09
2022-10-24T11:17:24.694Z,18.04
2022-10-24T11:20:04.547Z,18.04
2022-10-24T11:22:38.793Z,18.09
2022-10-24T11:25:17.963Z,17.93
2022-10-24T11:27:52.086Z,18.08
2022-10-24T11:30:22.657Z,18.06
2022-10-24T11:32:57.765Z,18.11
2022-10-24T11:35:30.262Z,17.99
2022-10-24T11:38:03.283Z,18.08
2022-10-24T11:40:32.208Z,18.07
2022-10-24T11:43:11.973Z,18.02
2022-10-24T11:45:46.955Z,17.98
2022-10-24T11:48:23.463Z,17.96
2022-10-24T11:50:55.471Z,17.85
2022-10-24T11:53:52.720Z,17.79
2022-10-24T11:56:30.864Z,17.79
2022-10-24T11:59:01.850Z,17.41
2022-10-24T12:02:02.368Z,17.48
2022-10-24T12:04:55.100Z,17.45
2022-10-24T12:07:51.747Z,17.51
2022-10-24T12:10:35.916Z,17.56
2022-10-24T12:13:24.469Z,17.54
2022-10-24T12:16:01.888Z,17.54
2022-10-24T12:18:33.879Z,17.53
2022-10-24T12:21:07.754Z,17.45
2022-10-24T12:23:36.843Z,17.46
2022-10-24T12:26:07.431Z,17.44
2022-10-24T12:28:36.518Z,17.25
2022-10-24T12:31:25.557Z,17.28
2022-10-24T12:34:37.642Z,17.42
2022-10-24T12:37:12.414Z,17.44
2022-10-24T12:39:45.929Z,17.43
2022-10-24T12:42:17.321Z,17.43
2022-10-24T12:44:47.341Z,17.46
2022-10-24T12:47:39.100Z,17.43
2022-10-24T12:50:44.323Z,17.36
2022-10-24T12:53:35.851Z,17.38
2022-10-24T12:58:59.234Z,17.35
2022-10-24T13:01:33.540Z,17.35
2022-10-24T13:04:41.930Z,17.41
2022-10-24T13:07:29.588Z,17.47
2022-10-24T13:10:14.222Z,17.46
2022-10-24T13:12:53.380Z,17.44
2022-10-24T13:15:29.418Z,17.48
2022-10-24T13:18:10.976Z,17.53
2022-10-24T13:20:41.833Z,17.52
2022-10-24T13:23:16.836Z,17.53
2022-10-24T13:25:47.646Z,17.49
2022-10-24T13:28:39.155Z,17.41
2022-10-24T13:31:49.790Z,17.36
2022-10-24T13:34:24.562Z,17.20
2022-10-24T13:37:00.817Z,17.17
2022-10-24T13:39:36.091Z,17.15
2022-10-24T13:42:24.347Z,17.14
2022-10-24T13:44:54.354Z,17.14
2022-10-24T13:47:26.940Z,17.10
2022-10-24T13:49:59.257Z,17.10
2022-10-24T13:52:35.062Z,17.07
2022-10-24T13:55:15.301Z,17.05
2022-10-24T13:57:59.963Z,16.99
2022-10-24T14:00:30.408Z,16.95
2022-10-24T14:03:01.035Z,16.88
2022-10-24T14:05:37.559Z,16.92
2022-10-24T14:08:09.688Z,16.90
2022-10-24T14:10:39.515Z,16.84
2022-10-24T14:13:17.107Z,16.67
2022-10-24T14:15:49.335Z,16.58
2022-10-24T14:20:54.896Z,16.40
2022-10-24T14:23:27.175Z,16.34
2022-10-24T14:25:58.924Z,16.29
2022-10-24T14:28:32.661Z,16.23
2022-10-24T14:31:02.824Z,16.13
2022-10-24T14:33:32.097Z,16.05
2022-10-24T14:36:03.829Z,15.97
2022-10-24T14:38:32.697Z,15.94
2022-10-24T14:41:08.957Z,15.85
2022-10-24T14:43:42.279Z,15.78
2022-10-24T14:46:28.436Z,15.70
2022-10-24T14:48:56.688Z,15.64
2022-10-24T14:51:28.769Z,15.57
2022-10-24T14:53:58.869Z,15.50
2022-10-24T14:56:30.126Z,15.41
2022-10-24T14:59:01.837Z,15.36
2022-10-24T15:01:31.543Z,15.28
2022-10-24T15:04:02.576Z,15.21
2022-10-24T15:06:39.160Z,15.19
2022-10-24T15:09:16.661Z,15.16
2022-10-24T15:11:46.199Z,15.12
2022-10-24T15:14:39.969Z,15.05
2022-10-24T15:17:30.029Z,14.98
2022-10-24T15:20:03.736Z,14.89
2022-10-24T15:22:36.297Z,14.87
2022-10-24T15:25:08.371Z,14.94
2022-10-24T15:27:41.229Z,14.92
2022-10-24T15:30:17.146Z,14.91
2022-10-24T15:32:46.061Z,14.86
2022-10-24T15:35:15.208Z,14.71
2022-10-24T15:37:54.606Z,14.61
2022-10-24T15:40:24.959Z,14.52
2022-10-24T15:42:53.919Z,14.46
2022-10-24T15:45:23.828Z,14.43
2022-10-24T15:47:52.990Z,14.33
2022-10-24T15:52:58.309Z,14.13
2022-10-24T15:55:28.799Z,14.10
2022-10-24T15:57:59.899Z,14.24
2022-10-24T16:00:29.459Z,14.30
2022-10-24T16:03:04.847Z,14.39
2022-10-24T16:05:40.307Z,14.39
2022-10-24T16:08:14.711Z,14.35
2022-10-24T16:10:43.750Z,14.34
2022-10-24T16:13:14.077Z,14.38
2022-10-24T16:15:44.855Z,14.35
2022-10-24T16:18:17.641Z,14.31
2022-10-24T16:20:46.070Z,14.33
2022-10-24T16:23:17.046Z,14.27
2022-10-24T16:25:45.720Z,14.21
2022-10-24T16:28:15.028Z,14.09
2022-10-24T16:30:46.726Z,14.10
2022-10-24T16:33:15.378Z,14.05
2022-10-24T16:35:43.584Z,14.10
2022-10-24T16:38:12.688Z,14.18
2022-10-24T16:40:42.467Z,14.22
2022-10-24T16:43:12.619Z,14.20
2022-10-24T16:45:41.010Z,14.20
2022-10-24T16:48:11.594Z,14.18
2022-10-24T16:50:44.249Z,14.17
2022-10-24T16:53:14.514Z,14.24
2022-10-24T16:55:48.467Z,14.16
2022-10-24T16:58:18.819Z,14.03
2022-10-24T17:00:47.643Z,13.92
2022-10-24T17:03:17.608Z,13.80
2022-10-24T17:05:49.283Z,13.76
2022-10-24T17:08:17.496Z,13.70
2022-10-24T17:10:45.603Z,13.68
2022-10-24T17:13:13.884Z,13.60
2022-10-24T17:15:42.328Z,13.53
2022-10-24T17:18:10.408Z,13.55
2022-10-24T17:20:43.829Z,13.58
2022-10-24T17:23:14.682Z,13.55
2022-10-24T17:25:44.021Z,13.49
2022-10-24T17:28:13.969Z,13.41
2022-10-24T17:30:42.836Z,13.35
2022-10-24T17:33:11.813Z,13.39
2022-10-24T17:35:46.219Z,13.39
2022-10-24T17:38:28.809Z,13.40
2022-10-24T17:41:00.784Z,13.30
2022-10-24T17:43:29.826Z,13.35
2022-10-24T17:45:59.131Z,13.43
2022-10-24T17:48:27.360Z,13.59
2022-10-24T17:50:59.093Z,13.72
2022-10-24T17:53:27.325Z,13.75
2022-10-24T17:55:55.432Z,13.77
2022-10-24T17:58:23.564Z,13.67
2022-10-24T18:00:51.690Z,13.61
2022-10-24T18:03:20.596Z,13.53
2022-10-24T18:05:48.729Z,13.55
2022-10-24T18:08:18.336Z,13.53
2022-10-24T18:10:46.548Z,13.45
2022-10-24T18:13:14.818Z,13.41
2022-10-24T18:15:44.023Z,13.29
2022-10-24T18:18:12.864Z,13.28
2022-10-24T18:20:40.927Z,13.23
2022-10-24T18:23:09.135Z,13.17
2022-10-24T18:25:39.348Z,13.07
2022-10-24T18:28:07.532Z,13.04
2022-10-24T18:30:36.437Z,12.99
2022-10-24T18:33:05.533Z,13.01
2022-10-24T18:35:34.206Z,13.02
2022-10-24T18:38:02.455Z,13.12
2022-10-24T18:40:33.493Z,13.21
2022-10-24T18:43:06.030Z,13.51
2022-10-24T18:45:34.858Z,13.70
2022-10-24T18:48:03.623Z,13.76
2022-10-24T18:50:32.163Z,13.88
2022-10-24T18:53:06.023Z,14.16
2022-10-24T18:55:35.636Z,14.31
2022-10-24T18:58:05.706Z,14.43
2022-10-24T19:00:38.154Z,14.46
2022-10-24T19:03:18.263Z,14.38
2022-10-24T19:05:54.557Z,14.24
2022-10-24T19:08:25.446Z,14.06
2022-10-24T19:10:56.298Z,14.13
2022-10-24T19:13:28.301Z,14.26
2022-10-24T19:16:00.227Z,14.31
2022-10-24T19:18:32.862Z,14.25
2022-10-24T19:21:01.219Z,14.06
2022-10-24T19:23:29.559Z,13.93
2022-10-24T19:25:58.886Z,13.83
2022-10-24T19:28:28.840Z,13.80
2022-10-24T19:30:57.403Z,13.69
2022-10-24T19:33:28.114Z,13.68
2022-10-24T19:35:56.361Z,13.78
2022-10-24T19:38:24.529Z,13.76
2022-10-24T19:40:54.308Z,13.67
2022-10-24T19:43:24.210Z,13.69
2022-10-24T19:46:07.549Z,13.55
2022-10-24T19:48:43.267Z,13.70
2022-10-24T19:51:13.396Z,13.82
2022-10-24T19:53:43.241Z,13.78
2022-10-24T19:56:13.797Z,13.63
2022-10-24T19:58:42.476Z,13.44
2022-10-24T20:01:14.037Z,13.31
2022-10-24T20:03:43.348Z,13.22
2022-10-24T20:06:12.304Z,13.07
2022-10-24T20:08:40.647Z,13.01
2022-10-24T20:11:10.263Z,13.12
2022-10-24T20:13:38.808Z,13.15
2022-10-24T20:16:08.245Z,13.13
2022-10-24T20:18:39.151Z,13.06
2022-10-24T20:21:10.034Z,12.97
2022-10-24T20:23:40.283Z,12.97
2022-10-24T20:26:10.328Z,13.25
2022-10-24T20:28:40.446Z,13.34
2022-10-24T20:31:08.975Z,13.34
2022-10-24T20:33:38.439Z,13.24
2022-10-24T20:36:06.788Z,13.17
2022-10-24T20:38:35.342Z,13.16
2022-10-24T20:41:03.920Z,13.07
2022-10-24T20:43:32.305Z,13.00
2022-10-24T20:46:00.424Z,13.06
2022-10-24T20:48:28.562Z,13.17
2022-10-24T20:51:05.205Z,13.35
2022-10-24T20:53:33.813Z,13.46
2022-10-24T20:56:06.383Z,13.44
2022-10-24T20:58:36.861Z,13.58
2022-10-24T21:01:09.269Z,13.71
2022-10-24T21:03:38.104Z,13.67
2022-10-24T21:06:15.626Z,13.64
2022-10-24T21:08:43.712Z,13.65
2022-10-24T21:11:15.570Z,13.89
2022-10-24T21:13:43.988Z,13.97
2022-10-24T21:16:13.025Z,14.08
2022-10-24T21:18:41.240Z,14.01
2022-10-24T21:21:13.587Z,13.98
2022-10-24T21:23:42.448Z,13.93
2022-10-24T21:26:12.596Z,13.81
2022-10-24T21:28:41.022Z,13.74
2022-10-24T21:31:11.242Z,13.67
2022-10-24T21:33:41.591Z,13.62
2022-10-24T21:36:13.155Z,13.54
2022-10-24T21:38:41.613Z,13.62
2022-10-24T21:41:11.854Z,13.65
2022-10-24T21:43:41.510Z,13.68
2022-10-24T21:46:11.441Z,13.54
2022-10-24T21:48:41.068Z,13.46
2022-10-24T21:51:12.644Z,13.44
2022-10-24T21:53:42.372Z,13.57
2022-10-24T21:56:12.572Z,13.54
2022-10-24T21:58:40.980Z,13.49
2022-10-24T22:01:13.340Z,13.41
2022-10-24T22:03:42.618Z,13.53
2022-10-24T22:06:15.122Z,13.62
2022-10-24T22:08:44.271Z,13.52
2022-10-24T22:11:16.005Z,13.47
2022-10-24T22:13:45.408Z,13.28
2022-10-24T22:16:15.279Z,13.19
2022-10-24T22:18:43.936Z,13.15
2022-10-24T22:21:22.809Z,13.09
2022-10-24T22:23:50.954Z,13.00
2022-10-24T22:26:19.400Z,12.99
2022-10-24T22:28:47.601Z,12.92
2022-10-24T22:31:16.785Z,12.90
2022-10-24T22:33:45.415Z,12.97
2022-10-24T22:36:21.346Z,12.85
2022-10-24T22:38:53.340Z,12.88
2022-10-24T22:41:22.219Z,12.81
2022-10-24T22:43:51.177Z,12.71
2022-10-24T22:46:36.245Z,12.67
2022-10-24T22:49:08.914Z,12.70
2022-10-24T22:51:39.377Z,12.74
2022-10-24T22:54:15.671Z,12.65
2022-10-24T22:56:44.664Z,12.57
2022-10-24T22:59:13.582Z,12.56
2022-10-24T23:01:56.754Z,12.71
2022-10-24T23:04:35.236Z,12.75
2022-10-24T23:07:16.240Z,12.63
2022-10-24T23:09:44.356Z,12.63
2022-10-24T23:12:15.590Z,12.69
2022-10-24T23:14:44.136Z,12.59
2022-10-24T23:17:15.202Z,12.50
2022-10-24T23:19:46.948Z,12.41
2022-10-24T23:22:23.590Z,12.30
2022-10-24T23:24:53.207Z,12.22
2022-10-24T23:27:33.000Z,12.25
2022-10-24T23:30:02.419Z,12.29
2022-10-24T23:32:33.015Z,12.25
2022-10-24T23:35:01.747Z,12.19
2022-10-24T23:37:37.094Z,12.27
2022-10-24T23:40:21.943Z,12.37
2022-10-24T23:42:51.351Z,12.38
2022-10-24T23:45:21.869Z,12.37
2022-10-24T23:48:04.863Z,12.39
2022-10-24T23:50:39.327Z,12.46
2022-10-24T23:53:21.504Z,12.48
2022-10-24T23:55:50.422Z,12.46
2022-10-24T23:58:18.568Z,12.44
